Time;durP1;ratioP1;P1;durP2;ratioP2;P2;SDS_P1;SDS_P2;PMS_P1;PMS_P2;Temp;Humidity;BMP_temperature;BMP_pressure;BME280_temperature;BME280_humidity;BME280_pressure;Samples;Min_cycle;Max_cycle;Signal;HPM_P1;HPM_P2
2022/12/27 00:00:51;;;;;;;4.70;1.43;;;10.10;46.20;;;;;;4993279;28;20421;-52
2022/12/27 00:03:18;;;;;;;4.20;1.85;;;10.10;45.60;;;;;;4993072;28;20179;-52
2022/12/27 00:05:45;;;;;;;3.78;1.35;;;10.20;45.90;;;;;;4993110;28;20195;-52
2022/12/27 00:08:11;;;;;;;4.00;1.42;;;10.10;46.10;;;;;;4992173;28;20238;-52
2022/12/27 00:10:37;;;;;;;3.20;1.70;;;10.10;45.80;;;;;;4993072;28;20248;-52
2022/12/27 00:13:03;;;;;;;5.47;1.70;;;10.10;46.20;;;;;;4992842;28;20648;-52
2022/12/27 00:15:29;;;;;;;2.15;1.10;;;10.10;45.90;;;;;;4993087;28;20189;-52
2022/12/27 00:17:55;;;;;;;4.72;1.92;;;10.10;46.00;;;;;;4993008;28;20171;-51
2022/12/27 00:20:20;;;;;;;4.27;1.17;;;10.20;46.00;;;;;;4992844;28;20176;-52
2022/12/27 00:22:46;;;;;;;4.30;2.10;;;10.20;46.00;;;;;;4992740;28;20259;-52
2022/12/27 00:25:12;;;;;;;5.37;1.33;;;10.20;46.00;;;;;;4992927;28;20482;-52
2022/12/27 00:27:38;;;;;;;2.57;1.20;;;10.30;46.10;;;;;;4992918;28;20175;-52
2022/12/27 00:30:04;;;;;;;2.67;1.40;;;10.30;46.20;;;;;;4992753;28;20269;-52
2022/12/27 00:32:30;;;;;;;6.45;1.80;;;10.40;46.00;;;;;;4992628;28;20167;-52
2022/12/27 00:34:56;;;;;;;6.77;1.60;;;10.40;46.20;;;;;;4992742;28;20178;-52
2022/12/27 00:37:21;;;;;;;4.27;1.50;;;10.80;46.50;;;;;;4992916;28;20164;-52
2022/12/27 00:39:47;;;;;;;6.40;1.50;;;10.50;46.50;;;;;;4992643;28;20685;-52
2022/12/27 00:42:13;;;;;;;2.10;1.33;;;10.40;45.80;;;;;;4992446;28;20171;-52
2022/12/27 00:44:39;;;;;;;6.60;1.93;;;10.30;45.50;;;;;;4992793;28;20171;-51
2022/12/27 00:47:04;;;;;;;4.40;1.73;;;10.30;45.70;;;;;;4992887;28;20678;-52
2022/12/27 00:49:30;;;;;;;2.80;1.33;;;10.20;45.80;;;;;;4992389;28;20230;-52
2022/12/27 00:51:56;;;;;;;5.77;1.80;;;10.20;45.50;;;;;;4992363;28;20178;-52
2022/12/27 00:54:22;;;;;;;7.93;2.47;;;10.10;45.70;;;;;;4992488;28;20217;-52
2022/12/27 00:56:47;;;;;;;8.93;1.60;;;10.20;45.70;;;;;;4992583;28;20176;-52
2022/12/27 00:59:13;;;;;;;9.23;1.83;;;10.10;45.80;;;;;;4992490;28;20438;-51
2022/12/27 01:01:39;;;;;;;6.90;2.40;;;10.10;45.80;;;;;;4992490;28;20172;-52
2022/12/27 01:04:06;;;;;;;4.90;1.80;;;10.10;45.80;;;;;;4992241;28;20266;-52
2022/12/27 01:06:33;;;;;;;6.97;1.88;;;10.10;45.80;;;;;;4992310;28;20195;-52
2022/12/27 01:09:00;;;;;;;7.93;1.25;;;10.00;45.10;;;;;;4992338;28;20274;-52
2022/12/27 01:11:27;;;;;;;1.88;1.20;;;10.00;45.60;;;;;;4992453;28;20633;-52
2022/12/27 01:13:58;;;;;;;11.48;2.83;;;9.90;45.60;;;;;;4992242;28;20199;-52
2022/12/27 01:16:26;;;;;;;11.40;2.55;;;9.80;45.10;;;;;;4992423;28;20166;-52
2022/12/27 01:18:53;;;;;;;5.63;2.13;;;9.60;45.40;;;;;;4993220;28;20191;-52
2022/12/27 01:21:20;;;;;;;8.05;1.85;;;9.50;45.10;;;;;;4978742;28;20201;-51
2022/12/27 01:23:47;;;;;;;5.45;1.63;;;9.60;45.50;;;;;;4995913;28;20175;-52
2022/12/27 01:26:17;;;;;;;4.57;1.48;;;9.60;45.30;;;;;;4996059;28;20549;-52
2022/12/27 01:28:43;;;;;;;13.73;2.47;;;9.70;45.40;;;;;;4995973;28;20217;-52
2022/12/27 01:31:12;;;;;;;8.20;2.25;;;9.80;45.30;;;;;;4995951;28;20227;-51
2022/12/27 01:33:38;;;;;;;7.68;2.92;;;9.80;45.30;;;;;;4995945;28;20175;-51
2022/12/27 01:36:08;;;;;;;7.53;1.47;;;9.90;45.10;;;;;;4995944;28;20182;-52
2022/12/27 01:38:34;;;;;;;5.95;1.70;;;9.90;44.80;;;;;;4995720;28;20435;-51
2022/12/27 01:42:50;;;;;;;2.63;1.20;;;9.90;43.70;;;;;;4995839;28;20282;-51
2022/12/27 01:43:46;;;;;;;3.00;1.40;;;9.90;44.40;;;;;;4995327;28;20190;-51
2022/12/27 01:46:12;;;;;;;5.80;1.77;;;9.80;44.30;;;;;;4995967;28;20297;-51
2022/12/27 01:48:38;;;;;;;5.43;1.67;;;9.90;44.20;;;;;;4995703;28;20226;-51
2022/12/27 01:51:05;;;;;;;6.35;1.60;;;9.80;44.00;;;;;;4995736;28;20210;-51
2022/12/27 01:53:36;;;;;;;8.05;1.20;;;9.80;44.20;;;;;;4995426;28;20167;-51
2022/12/27 01:56:07;;;;;;;4.22;1.35;;;9.80;43.50;;;;;;4995625;28;20205;-51
2022/12/27 01:58:54;;;;;;;7.97;1.70;;;9.70;43.20;;;;;;4995431;28;20197;-51
2022/12/27 02:01:28;;;;;;;6.22;1.80;;;9.70;42.70;;;;;;4995483;28;20263;-51
2022/12/27 02:04:05;;;;;;;13.20;1.27;;;9.70;43.10;;;;;;4995270;28;20187;-51
2022/12/27 02:06:31;;;;;;;7.15;1.40;;;9.70;42.80;;;;;;4995366;28;20222;-51
2022/12/27 02:09:45;;;;;;;4.30;1.30;;;9.60;42.20;;;;;;4995144;28;20195;-51
2022/12/27 02:12:12;;;;;;;6.72;2.65;;;9.50;42.40;;;;;;4915937;29;20272;-51
2022/12/27 02:14:47;;;;;;;6.28;1.40;;;9.50;42.80;;;;;;4916216;29;20696;-51
2022/12/27 02:17:25;;;;;;;5.97;1.48;;;9.60;43.00;;;;;;4916023;29;20192;-51
2022/12/27 02:20:11;;;;;;;3.38;1.85;;;9.70;43.40;;;;;;4915988;29;20194;-51
2022/12/27 02:25:50;;;;;;;7.05;2.55;;;9.60;43.00;;;;;;4915891;29;20243;-51
2022/12/27 02:28:46;;;;;;;7.03;1.95;;;9.50;43.00;;;;;;4915903;29;20201;-51
2022/12/27 02:31:23;;;;;;;8.93;2.58;;;9.50;42.90;;;;;;4914885;29;20234;-51
2022/12/27 02:33:52;;;;;;;8.00;1.40;;;9.40;42.90;;;;;;4915536;29;20257;-51
2022/12/27 02:36:28;;;;;;;5.82;1.77;;;9.40;43.00;;;;;;4915733;29;20184;-51
2022/12/27 02:38:57;;;;;;;9.38;2.22;;;9.40;43.20;;;;;;4915675;29;20603;-51
2022/12/27 02:53:04;;;;;;;8.95;2.17;;;9.40;42.90;;;;;;4994529;28;20715;-51
2022/12/27 02:59:03;;;;;;;5.43;1.40;;;9.30;43.50;;;;;;4994427;28;20263;-52
2022/12/27 03:04:59;;;;;;;4.65;1.90;;;9.00;44.40;;;;;;4994439;28;20701;-52
2022/12/27 03:07:34;;;;;;;4.93;1.77;;;9.00;44.00;;;;;;4994221;28;20185;-52
2022/12/27 03:16:11;;;;;;;5.03;1.50;;;8.80;44.00;;;;;;4994201;28;20183;-52
2022/12/27 03:18:43;;;;;;;10.25;1.90;;;8.80;43.20;;;;;;4994309;28;20631;-52
2022/12/27 03:26:49;;;;;;;3.78;1.77;;;8.60;42.40;;;;;;4993995;28;20710;-52
2022/12/27 03:34:55;;;;;;;8.93;2.00;;;8.60;42.60;;;;;;4994084;28;20181;-52
2022/12/27 03:40:26;;;;;;;4.65;1.90;;;8.80;42.70;;;;;;4993715;28;20230;-52
2022/12/27 03:43:11;;;;;;;7.85;1.75;;;8.80;42.10;;;;;;4993284;28;20242;-52
2022/12/27 03:49:07;;;;;;;5.15;2.10;;;8.80;41.50;;;;;;4993587;28;20224;-52
2022/12/27 03:51:59;;;;;;;2.20;1.35;;;8.80;41.70;;;;;;4956515;28;20198;-52
2022/12/27 03:54:46;;;;;;;2.88;1.48;;;8.70;41.60;;;;;;4993476;28;20156;-52
2022/12/27 03:57:14;;;;;;;4.82;2.25;;;8.70;41.40;;;;;;5014834;23;20320;-50
2022/12/27 03:59:40;;;;;;;3.50;1.80;;;8.60;41.70;;;;;;5004691;28;20202;-50
2022/12/27 04:02:06;;;;;;;4.00;2.10;;;8.60;41.90;;;;;;5012755;28;20771;-50
2022/12/27 04:04:32;;;;;;;6.00;1.70;;;8.50;41.60;;;;;;5013025;28;20171;-50
2022/12/27 04:06:58;;;;;;;5.10;2.10;;;8.50;41.50;;;;;;5004392;28;20214;-50
2022/12/27 04:36:47;;;;;;;5.30;1.80;;;8.40;40.20;;;;;;4992793;28;20198;-50
2022/12/27 04:39:13;;;;;;;2.23;1.67;;;8.30;40.90;;;;;;4992769;28;20179;-50
2022/12/27 04:55:45;;;;;;;3.35;1.85;;;8.00;40.30;;;;;;4976213;28;20191;-50
2022/12/27 04:58:11;;;;;;;3.47;2.30;;;8.00;40.80;;;;;;4998960;28;20214;-49
2022/12/27 05:03:22;;;;;;;1.98;1.50;;;8.00;40.60;;;;;;4999339;28;20189;-50
2022/12/27 05:05:50;;;;;;;3.25;2.08;;;8.00;41.10;;;;;;4999085;28;20556;-50
2022/12/27 05:13:59;;;;;;;7.53;2.08;;;8.00;40.50;;;;;;4998851;28;20158;-50
2022/12/27 05:16:30;;;;;;;4.20;1.67;;;8.00;41.20;;;;;;4998862;28;20199;-49
2022/12/27 05:18:57;;;;;;;3.95;1.70;;;8.00;41.50;;;;;;4998882;28;20245;-50
2022/12/27 05:21:23;;;;;;;4.65;1.75;;;8.10;41.90;;;;;;4998826;28;20645;-49
2022/12/27 05:26:34;;;;;;;5.10;1.73;;;8.20;40.80;;;;;;4998787;28;20632;-50
2022/12/27 05:29:00;;;;;;;4.80;1.30;;;8.10;40.70;;;;;;4998821;28;20532;-50
2022/12/27 05:31:27;;;;;;;5.05;2.20;;;8.10;40.80;;;;;;4998771;28;20168;-50
2022/12/27 05:33:54;;;;;;;3.10;1.75;;;8.20;41.20;;;;;;4998531;28;20168;-49
2022/12/27 05:36:20;;;;;;;8.75;2.15;;;8.20;40.00;;;;;;4998659;28;20191;-49
2022/12/27 05:38:46;;;;;;;1.85;1.02;;;8.20;40.00;;;;;;4998702;28;20182;-49
2022/12/27 05:41:12;;;;;;;2.47;1.35;;;8.20;39.60;;;;;;4998663;28;20180;-49
2022/12/27 05:43:38;;;;;;;3.95;1.00;;;8.10;39.70;;;;;;4998500;28;20254;-49
2022/12/27 05:46:12;;;;;;;2.43;1.43;;;8.20;39.70;;;;;;4998520;28;20733;-49
2022/12/27 05:48:38;;;;;;;3.03;1.65;;;8.20;39.30;;;;;;4998625;28;20167;-49
2022/12/27 05:51:10;;;;;;;1.98;0.93;;;8.10;38.10;;;;;;4998620;28;20254;-49
2022/12/27 05:53:35;;;;;;;1.50;1.20;;;8.10;38.70;;;;;;4998352;28;20185;-49
2022/12/27 05:56:02;;;;;;;2.00;1.50;;;8.20;39.30;;;;;;4998561;28;20182;-49
2022/12/27 05:58:28;;;;;;;2.60;1.27;;;8.20;38.50;;;;;;4998468;28;20211;-49
2022/12/27 06:00:54;;;;;;;3.25;1.38;;;8.20;38.40;;;;;;4998576;28;20171;-49
2022/12/27 06:03:20;;;;;;;2.40;1.60;;;8.20;38.90;;;;;;4998264;28;20171;-50
2022/12/27 06:05:46;;;;;;;2.43;1.00;;;8.30;39.20;;;;;;4996489;28;20199;-49
2022/12/27 06:08:12;;;;;;;2.20;0.93;;;8.40;39.50;;;;;;4995336;28;20426;-49
2022/12/27 06:10:38;;;;;;;3.67;1.60;;;8.20;37.90;;;;;;4995320;28;20659;-49
2022/12/27 06:13:04;;;;;;;4.77;1.60;;;8.20;38.30;;;;;;4995147;28;20262;-49
2022/12/27 06:15:30;;;;;;;2.13;1.45;;;8.20;38.10;;;;;;4995321;28;20912;-49
2022/12/27 06:17:58;;;;;;;2.75;0.70;;;8.20;38.10;;;;;;4995017;28;20229;-49
2022/12/27 06:20:24;;;;;;;4.90;1.35;;;8.30;37.50;;;;;;4995204;28;20171;-49
2022/12/27 06:22:50;;;;;;;3.65;1.30;;;8.20;38.30;;;;;;4995017;28;20699;-49
2022/12/27 06:25:16;;;;;;;8.83;2.03;;;8.20;38.00;;;;;;4994943;28;20227;-49
2022/12/27 06:27:42;;;;;;;2.90;2.27;;;8.30;37.90;;;;;;4994975;28;20502;-49
2022/12/27 06:30:11;;;;;;;6.83;1.70;;;8.20;37.90;;;;;;4994875;28;20173;-50
2022/12/27 06:32:37;;;;;;;4.65;2.03;;;8.20;38.10;;;;;;4977772;28;20191;-49
2022/12/27 06:35:03;;;;;;;3.22;1.60;;;8.30;38.20;;;;;;4994870;28;20177;-50
2022/12/27 06:37:29;;;;;;;1.92;1.30;;;8.20;38.00;;;;;;4994755;28;20286;-49
2022/12/27 06:39:55;;;;;;;3.83;1.20;;;8.20;38.30;;;;;;4994857;28;20681;-49
2022/12/27 06:42:21;;;;;;;2.58;1.70;;;8.10;38.30;;;;;;4994573;28;20430;-49
2022/12/27 06:44:48;;;;;;;5.00;1.23;;;8.20;38.70;;;;;;4994633;28;20195;-49
2022/12/27 06:47:14;;;;;;;6.00;2.10;;;8.10;38.30;;;;;;4994513;28;20207;-49
2022/12/27 06:49:40;;;;;;;6.10;1.83;;;8.10;38.60;;;;;;4994551;28;20164;-49
2022/12/27 06:52:06;;;;;;;4.73;1.60;;;8.10;38.50;;;;;;4994413;28;20168;-49
2022/12/27 06:54:31;;;;;;;5.00;1.37;;;8.00;38.00;;;;;;4994601;28;20171;-49
2022/12/27 06:56:57;;;;;;;3.47;1.20;;;8.00;37.80;;;;;;4976799;28;20461;-49
2022/12/27 06:59:23;;;;;;;1.60;0.97;;;7.90;37.90;;;;;;4994421;28;20637;-49
2022/12/27 07:01:49;;;;;;;3.58;1.00;;;7.80;38.30;;;;;;4994226;28;20406;-49
2022/12/27 07:04:15;;;;;;;4.27;1.50;;;7.80;38.40;;;;;;4994249;28;20177;-49
2022/12/27 07:06:41;;;;;;;1.90;1.10;;;7.90;38.40;;;;;;4994209;28;20203;-49
2022/12/27 07:09:07;;;;;;;4.27;1.60;;;7.80;38.40;;;;;;4994208;28;20437;-49
2022/12/27 07:11:35;;;;;;;2.45;1.10;;;7.70;38.40;;;;;;4994166;28;20410;-49
2022/12/27 07:14:02;;;;;;;2.88;1.13;;;7.70;38.90;;;;;;4993980;28;20167;-49
2022/12/27 07:16:29;;;;;;;4.32;1.40;;;7.70;38.70;;;;;;4993569;28;20194;-49
2022/12/27 07:18:57;;;;;;;9.57;1.65;;;7.70;38.70;;;;;;4994145;28;20175;-49
2022/12/27 07:21:25;;;;;;;6.43;1.60;;;7.60;38.60;;;;;;4993967;28;20257;-49
2022/12/27 07:23:50;;;;;;;5.50;1.48;;;7.60;38.80;;;;;;4993873;28;20178;-49
2022/12/27 07:26:22;;;;;;;2.60;1.57;;;7.50;39.20;;;;;;4993767;28;20199;-49
2022/12/27 07:28:48;;;;;;;5.45;1.73;;;7.50;39.10;;;;;;4993969;28;20430;-49
2022/12/27 07:31:19;;;;;;;6.43;1.57;;;7.50;39.20;;;;;;4993835;28;20199;-49
2022/12/27 07:33:45;;;;;;;4.22;1.33;;;7.60;39.20;;;;;;4993632;28;20387;-49
2022/12/27 07:36:23;;;;;;;2.63;1.30;;;7.70;39.20;;;;;;4993766;28;20552;-49
2022/12/27 07:38:49;;;;;;;7.55;1.30;;;7.80;38.70;;;;;;4993633;28;20758;-49
2022/12/27 07:41:15;;;;;;;3.45;1.90;;;7.80;39.20;;;;;;4993576;28;20885;-49
2022/12/27 07:43:43;;;;;;;4.72;1.20;;;7.70;39.40;;;;;;4993450;28;20184;-49
2022/12/27 07:46:27;;;;;;;1.90;1.35;;;7.60;39.50;;;;;;4993433;28;20202;-49
2022/12/27 07:48:54;;;;;;;3.30;0.82;;;7.60;39.50;;;;;;4993732;28;20242;-49
2022/12/27 07:51:21;;;;;;;2.92;1.50;;;7.70;39.70;;;;;;4993499;28;20186;-49
2022/12/27 07:53:48;;;;;;;6.65;3.00;;;7.80;39.70;;;;;;4993184;28;20201;-50
2022/12/27 07:56:17;;;;;;;2.70;1.10;;;7.90;39.60;;;;;;4993232;28;20254;-49
2022/12/27 07:58:44;;;;;;;2.60;1.00;;;8.00;39.50;;;;;;4993366;28;20179;-49
2022/12/27 08:01:12;;;;;;;2.00;1.40;;;8.20;39.10;;;;;;4993392;28;20207;-49
2022/12/27 08:03:38;;;;;;;3.55;2.60;;;8.30;39.30;;;;;;4993912;28;20171;-49
2022/12/27 08:06:05;;;;;;;3.38;1.45;;;8.50;39.00;;;;;;4993076;28;20845;-49
2022/12/27 08:08:41;;;;;;;5.65;1.98;;;8.50;38.50;;;;;;4993138;28;20629;-49
2022/12/27 08:11:07;;;;;;;5.10;1.95;;;8.50;38.60;;;;;;4993325;28;20276;-49
2022/12/27 08:13:33;;;;;;;2.90;1.50;;;8.60;38.80;;;;;;4992849;28;20167;-49
2022/12/27 08:15:59;;;;;;;4.95;1.65;;;8.60;38.50;;;;;;4992892;28;20419;-49
2022/12/27 08:18:25;;;;;;;3.80;1.73;;;8.60;39.00;;;;;;4992974;28;20723;-49
2022/12/27 08:20:51;;;;;;;4.17;1.90;;;8.60;38.80;;;;;;4993035;28;20168;-49
2022/12/27 08:23:17;;;;;;;3.43;1.10;;;8.80;38.70;;;;;;4992721;28;20656;-49
2022/12/27 08:25:44;;;;;;;8.40;1.57;;;9.00;38.80;;;;;;4992847;28;20805;-49
2022/12/27 08:28:12;;;;;;;4.82;1.55;;;9.30;38.40;;;;;;4992084;28;20435;-49
2022/12/27 08:30:42;;;;;;;4.25;1.20;;;9.30;37.90;;;;;;4992755;28;20176;-49
2022/12/27 08:33:09;;;;;;;10.65;1.92;;;9.20;37.20;;;;;;4992445;28;20201;-49
2022/12/27 08:35:39;;;;;;;3.70;3.00;;;9.10;37.90;;;;;;4992729;28;20255;-49
2022/12/27 08:38:05;;;;;;;2.28;1.45;;;9.00;37.70;;;;;;4992691;28;20275;-49
2022/12/27 08:40:31;;;;;;;7.87;1.97;;;9.00;38.40;;;;;;4992810;28;20719;-49
2022/12/27 08:42:57;;;;;;;3.70;1.73;;;9.00;38.80;;;;;;4992453;28;20171;-49
2022/12/27 08:45:23;;;;;;;2.55;1.60;;;9.10;38.30;;;;;;4992584;28;20163;-49
2022/12/27 08:47:49;;;;;;;2.97;1.57;;;9.10;38.60;;;;;;4992574;28;20203;-49
2022/12/27 08:50:15;;;;;;;2.43;1.67;;;9.10;38.70;;;;;;4992592;28;20221;-49
2022/12/27 08:52:40;;;;;;;4.50;1.40;;;9.10;38.80;;;;;;4992358;28;20175;-49
2022/12/27 08:55:06;;;;;;;6.70;1.87;;;9.10;38.60;;;;;;4992458;28;20889;-49
2022/12/27 08:57:32;;;;;;;6.90;1.75;;;9.10;38.70;;;;;;4992337;28;20290;-49
2022/12/27 08:59:59;;;;;;;4.20;1.80;;;9.00;38.00;;;;;;4992435;28;20256;-49
2022/12/27 09:02:24;;;;;;;3.78;2.20;;;8.90;38.60;;;;;;4992234;28;20826;-49
2022/12/27 09:04:50;;;;;;;3.73;1.60;;;8.80;38.70;;;;;;4992435;28;20201;-49
2022/12/27 09:07:16;;;;;;;5.23;1.80;;;8.80;39.10;;;;;;4992286;28;20206;-49
2022/12/27 09:09:41;;;;;;;5.93;2.00;;;8.80;39.30;;;;;;4992488;28;20163;-49
2022/12/27 09:12:07;;;;;;;3.67;1.30;;;8.90;39.00;;;;;;4992156;28;20196;-49
2022/12/27 09:14:33;;;;;;;2.87;2.10;;;8.80;38.90;;;;;;4992378;28;20168;-49
2022/12/27 09:16:58;;;;;;;3.30;1.50;;;8.90;39.30;;;;;;4992237;28;20424;-49
2022/12/27 09:19:24;;;;;;;6.60;2.13;;;9.00;38.30;;;;;;4974934;28;20175;-49
2022/12/27 09:21:50;;;;;;;3.47;1.70;;;9.00;38.90;;;;;;4992125;28;20175;-49
2022/12/27 09:24:16;;;;;;;2.67;1.50;;;9.10;38.80;;;;;;4992169;28;20310;-49
2022/12/27 09:26:42;;;;;;;1.87;1.40;;;9.20;38.50;;;;;;4992134;28;20216;-49
2022/12/27 09:29:07;;;;;;;7.87;1.87;;;9.10;38.50;;;;;;4992233;28;20167;-49
2022/12/27 09:31:33;;;;;;;6.23;2.00;;;9.20;38.50;;;;;;4992153;28;20773;-49
2022/12/27 09:33:59;;;;;;;4.03;2.10;;;9.40;38.70;;;;;;4992092;28;20418;-49
2022/12/27 09:36:27;;;;;;;4.77;2.50;;;9.60;38.80;;;;;;4992238;28;20526;-49
2022/12/27 09:38:54;;;;;;;5.85;2.22;;;9.90;37.80;;;;;;4992627;28;20696;-49
2022/12/27 09:41:41;;;;;;;3.15;1.75;;;10.00;37.70;;;;;;4995833;28;20181;-49
2022/12/27 09:44:37;;;;;;;4.10;2.30;;;10.20;37.70;;;;;;4995458;28;20605;-49
2022/12/27 09:47:08;;;;;;;2.22;1.40;;;10.60;36.80;;;;;;4995689;28;20213;-49
2022/12/27 09:49:44;;;;;;;3.53;1.48;;;11.50;35.60;;;;;;4995821;28;20247;-49
2022/12/27 09:52:09;;;;;;;3.28;1.30;;;12.20;33.60;;;;;;4995480;28;20296;-50
2022/12/27 09:54:43;;;;;;;4.30;1.43;;;12.80;32.70;;;;;;4995580;28;20638;-49
2022/12/27 09:57:34;;;;;;;3.35;1.30;;;12.60;31.80;;;;;;4977945;28;20217;-49
2022/12/27 10:00:04;;;;;;;17.05;3.08;;;12.30;33.20;;;;;;4967355;28;20714;-49
2022/12/27 10:02:32;;;;;;;3.40;1.23;;;11.80;33.60;;;;;;4995348;28;20177;-50
2022/12/27 10:05:01;;;;;;;4.18;1.88;;;11.70;34.40;;;;;;4995620;28;20619;-50
2022/12/27 10:07:35;;;;;;;3.65;1.70;;;11.80;34.10;;;;;;4995809;28;20583;-50
2022/12/27 10:10:37;;;;;;;3.30;2.45;;;11.60;33.30;;;;;;4995760;28;20528;-50
2022/12/27 10:13:41;;;;;;;6.72;1.83;;;11.90;34.80;;;;;;4971466;28;20190;-50
2022/12/27 10:16:37;;;;;;;3.05;1.30;;;13.20;32.50;;;;;;4930722;28;20240;-50
2022/12/27 10:19:02;;;;;;;5.95;2.33;;;13.90;31.20;;;;;;5043763;23;20233;-51
2022/12/27 10:21:32;;;;;;;4.80;1.50;;;14.60;31.00;;;;;;5053880;28;20533;-51
2022/12/27 10:24:34;;;;;;;2.72;1.48;;;14.60;29.00;;;;;;5034588;28;20565;-51
2022/12/27 10:26:59;;;;;;;4.28;1.65;;;13.70;30.10;;;;;;5021110;28;20225;-51
2022/12/27 10:29:26;;;;;;;2.13;1.43;;;13.30;31.80;;;;;;5034409;28;20174;-51
2022/12/27 10:31:53;;;;;;;3.58;1.20;;;12.80;31.10;;;;;;5034207;28;20404;-51
2022/12/27 10:34:23;;;;;;;4.70;1.45;;;12.20;32.40;;;;;;5034234;28;20186;-51
2022/12/27 10:36:50;;;;;;;5.47;2.13;;;12.10;33.30;;;;;;5034291;28;20244;-51
2022/12/27 10:39:19;;;;;;;2.78;1.48;;;12.10;33.20;;;;;;5034103;28;20193;-51
2022/12/27 10:42:17;;;;;;;3.33;1.35;;;13.20;32.50;;;;;;5034008;28;20638;-51
2022/12/27 10:44:43;;;;;;;6.30;1.60;;;14.20;30.30;;;;;;5034251;28;20249;-51
2022/12/27 10:47:10;;;;;;;3.93;1.47;;;14.80;29.40;;;;;;5033903;28;20276;-51
2022/12/27 10:49:38;;;;;;;2.60;1.42;;;15.30;28.90;;;;;;5034289;28;20412;-51
2022/12/27 10:52:18;;;;;;;3.80;1.65;;;15.30;28.50;;;;;;5032782;28;20647;-51
2022/12/27 10:54:55;;;;;;;3.47;1.65;;;15.60;28.70;;;;;;5034100;28;20178;-51
2022/12/27 10:57:27;;;;;;;4.90;2.05;;;16.00;27.90;;;;;;5033972;28;20562;-51
2022/12/27 11:00:12;;;;;;;3.70;1.52;;;16.10;27.40;;;;;;5033792;28;20605;-51
2022/12/27 11:02:55;;;;;;;1.92;1.30;;;16.10;27.90;;;;;;5033554;28;20174;-51
2022/12/27 11:05:26;;;;;;;4.75;1.90;;;15.90;27.50;;;;;;5033820;28;20189;-51
2022/12/27 11:07:53;;;;;;;2.35;1.40;;;15.80;28.40;;;;;;5033873;28;20202;-51
2022/12/27 11:10:27;;;;;;;5.55;2.45;;;15.70;27.10;;;;;;5033678;28;20178;-51
2022/12/27 11:12:56;;;;;;;4.00;1.88;;;15.70;27.60;;;;;;5033436;28;20600;-51
2022/12/27 11:15:23;;;;;;;3.72;1.25;;;15.70;26.60;;;;;;5032232;28;20701;-51
2022/12/27 11:17:59;;;;;;;3.80;1.85;;;15.20;26.60;;;;;;5033286;28;20212;-51
2022/12/27 11:20:36;;;;;;;4.07;1.67;;;14.50;28.70;;;;;;5033477;28;20559;-51
2022/12/27 11:23:22;;;;;;;4.10;1.60;;;14.10;29.00;;;;;;5033195;28;20217;-51
2022/12/27 11:26:00;;;;;;;6.90;1.90;;;13.90;30.40;;;;;;5033258;28;20185;-51
2022/12/27 11:28:53;;;;;;;4.05;1.85;;;13.90;30.50;;;;;;5033207;28;20265;-51
2022/12/27 11:31:43;;;;;;;3.38;1.63;;;14.10;31.10;;;;;;5033125;28;20165;-52
2022/12/27 11:34:28;;;;;;;2.78;1.20;;;14.50;28.70;;;;;;5032898;28;20174;-52
2022/12/27 11:37:02;;;;;;;2.80;1.67;;;15.20;28.50;;;;;;5033034;28;20658;-51
2022/12/27 11:39:50;;;;;;;2.30;2.05;;;16.10;27.90;;;;;;5033054;28;20162;-51
2022/12/27 11:42:37;;;;;;;7.30;1.30;;;16.10;26.60;;;;;;5032735;28;20223;-52
2022/12/27 11:45:03;;;;;;;4.03;1.58;;;15.60;27.50;;;;;;5032909;28;20185;-51
2022/12/27 11:47:43;;;;;;;2.40;1.73;;;15.60;28.50;;;;;;5033009;28;20205;-52
2022/12/27 11:50:36;;;;;;;3.35;2.05;;;15.60;27.10;;;;;;5033060;28;20162;-51
2022/12/27 11:53:11;;;;;;;3.72;1.30;;;15.20;26.90;;;;;;5032647;28;20162;-51
2022/12/27 11:56:03;;;;;;;4.43;1.30;;;14.60;28.40;;;;;;5032971;28;20308;-51
2022/12/27 11:58:41;;;;;;;4.30;1.73;;;14.20;29.10;;;;;;5032923;28;20252;-51
2022/12/27 12:01:16;;;;;;;2.50;1.27;;;13.30;30.10;;;;;;5032707;28;20802;-51
2022/12/27 12:03:41;;;;;;;8.23;1.38;;;12.70;31.70;;;;;;5032309;28;20532;-51
2022/12/27 12:06:25;;;;;;;3.23;1.80;;;12.40;32.30;;;;;;5032648;28;20255;-51
2022/12/27 12:09:15;;;;;;;6.45;1.83;;;12.20;32.90;;;;;;5032501;28;20182;-51
2022/12/27 12:12:08;;;;;;;3.70;1.10;;;12.00;33.50;;;;;;5032720;28;20173;-51
2022/12/27 12:28:32;;;;;;;2.60;1.10;;;11.20;35.00;;;;;;5032313;28;20254;-51
2022/12/27 12:31:26;;;;;;;3.53;1.42;;;11.20;35.40;;;;;;5032522;28;20171;-51
2022/12/27 12:34:00;;;;;;;2.33;1.40;;;11.20;35.30;;;;;;5032041;28;20181;-51
2022/12/27 12:36:35;;;;;;;2.47;1.52;;;11.30;35.20;;;;;;5032400;28;20181;-51
2022/12/27 12:39:07;;;;;;;3.78;1.20;;;11.20;34.80;;;;;;5032037;28;20189;-51
2022/12/27 12:41:52;;;;;;;2.75;1.40;;;11.20;35.10;;;;;;5032024;28;20177;-51
2022/12/27 12:44:45;;;;;;;2.75;1.10;;;11.20;35.60;;;;;;5032031;28;20539;-51
2022/12/27 12:47:57;;;;;;;5.60;1.42;;;11.10;35.30;;;;;;5031853;28;20202;-51
2022/12/27 12:51:01;;;;;;;3.00;1.73;;;11.10;35.40;;;;;;5032215;28;20260;-51
2022/12/27 12:53:43;;;;;;;3.80;1.60;;;11.10;35.30;;;;;;5031970;28;20265;-51
2022/12/27 12:56:33;;;;;;;3.47;1.60;;;11.00;35.70;;;;;;5031907;28;20520;-51
2022/12/27 12:59:21;;;;;;;2.60;1.60;;;11.00;36.20;;;;;;5032147;28;20205;-51
2022/12/27 13:02:14;;;;;;;3.38;1.45;;;11.10;36.00;;;;;;5031727;28;20196;-51
2022/12/27 13:05:02;;;;;;;3.20;1.55;;;11.20;35.80;;;;;;5031800;28;20181;-51
2022/12/27 13:07:45;;;;;;;5.97;2.92;;;11.30;35.60;;;;;;5031638;28;20282;-51
2022/12/27 13:10:43;;;;;;;3.40;1.75;;;11.30;35.40;;;;;;5031727;28;20186;-51
2022/12/27 13:13:18;;;;;;;3.17;1.95;;;11.10;35.70;;;;;;5031541;28;20224;-51
2022/12/27 13:16:14;;;;;;;4.20;1.90;;;11.10;35.40;;;;;;5034253;28;20161;-51
2022/12/27 13:19:02;;;;;;;3.25;1.55;;;11.10;35.70;;;;;;5035600;28;20220;-51
2022/12/27 13:21:44;;;;;;;5.88;1.88;;;11.00;35.80;;;;;;5035869;28;20166;-51
2022/12/27 13:24:20;;;;;;;4.93;1.33;;;11.00;36.10;;;;;;5035405;28;20180;-51
2022/12/27 13:27:11;;;;;;;2.85;1.70;;;10.90;36.00;;;;;;5035486;28;20562;-51
2022/12/27 13:29:55;;;;;;;3.40;1.65;;;10.90;36.10;;;;;;5035435;28;20169;-51
2022/12/27 13:32:31;;;;;;;4.22;1.80;;;10.80;36.10;;;;;;5035363;28;20178;-52
2022/12/27 13:35:06;;;;;;;6.63;1.70;;;10.90;36.50;;;;;;5035570;28;20227;-51
2022/12/27 13:38:14;;;;;;;3.40;1.65;;;11.00;36.30;;;;;;5035269;28;20200;-51
2022/12/27 13:41:24;;;;;;;4.93;1.60;;;11.10;36.30;;;;;;5035166;28;20182;-51
2022/12/27 13:43:56;;;;;;;5.45;2.00;;;11.20;36.00;;;;;;5032878;28;20188;-51
2022/12/27 13:47:03;;;;;;;2.35;1.30;;;11.10;35.40;;;;;;5035637;28;20202;-51
2022/12/27 13:49:43;;;;;;;2.85;1.90;;;11.10;36.00;;;;;;5034641;28;20186;-51
2022/12/27 13:52:25;;;;;;;2.22;1.20;;;11.10;36.30;;;;;;5034847;28;20244;-51
2022/12/27 13:55:31;;;;;;;3.78;1.65;;;11.10;35.70;;;;;;5035077;28;20185;-50
2022/12/27 13:58:02;;;;;;;2.35;1.42;;;11.00;36.10;;;;;;5034923;28;20542;-51
2022/12/27 14:00:36;;;;;;;3.47;1.63;;;10.80;36.60;;;;;;5034859;28;20192;-51
2022/12/27 14:03:16;;;;;;;4.82;1.80;;;10.80;36.80;;;;;;5034733;28;20178;-51
2022/12/27 14:06:04;;;;;;;3.40;1.92;;;10.80;36.40;;;;;;5034728;28;20203;-51
2022/12/27 14:08:48;;;;;;;2.50;1.20;;;10.90;36.70;;;;;;5034731;28;20197;-51
2022/12/27 14:11:51;;;;;;;4.50;2.15;;;10.90;36.70;;;;;;5034628;28;20531;-51
2022/12/27 14:14:20;;;;;;;3.85;1.83;;;11.00;36.50;;;;;;5034613;28;20170;-51
2022/12/27 14:17:07;;;;;;;4.35;1.63;;;11.10;36.50;;;;;;5034600;28;20189;-51
2022/12/27 14:19:47;;;;;;;8.60;3.03;;;11.00;36.40;;;;;;5034478;28;20181;-51
2022/12/27 14:22:34;;;;;;;1.92;1.33;;;11.00;36.40;;;;;;5034541;28;20181;-51
2022/12/27 14:25:37;;;;;;;4.55;2.10;;;11.10;36.60;;;;;;5034484;28;20245;-51
2022/12/27 14:28:53;;;;;;;4.00;2.00;;;11.10;36.50;;;;;;5033376;28;20314;-51
2022/12/27 14:31:52;;;;;;;7.50;2.13;;;11.00;36.50;;;;;;4992647;28;20233;-51
2022/12/27 14:34:36;;;;;;;3.05;1.50;;;11.00;36.50;;;;;;4992542;28;20180;-51
2022/12/27 14:37:19;;;;;;;4.55;1.90;;;11.10;36.60;;;;;;4992425;28;20599;-51
2022/12/27 14:40:04;;;;;;;4.68;2.08;;;11.00;36.30;;;;;;4992589;28;20156;-51
2022/12/27 14:43:01;;;;;;;13.52;2.03;;;11.00;36.60;;;;;;4992174;28;20250;-51
2022/12/27 14:45:51;;;;;;;6.03;2.20;;;11.00;36.40;;;;;;4992393;28;20183;-51
2022/12/27 14:48:45;;;;;;;4.10;2.65;;;11.00;36.60;;;;;;4992350;28;20222;-50
2022/12/27 14:51:42;;;;;;;3.17;2.30;;;11.00;36.70;;;;;;4992300;28;20179;-51
2022/12/27 14:54:26;;;;;;;3.28;1.67;;;11.00;36.50;;;;;;4992209;28;20687;-51
2022/12/27 14:57:29;;;;;;;5.75;2.00;;;10.90;36.60;;;;;;4992240;28;20184;-51
2022/12/27 14:59:57;;;;;;;3.70;1.55;;;10.90;36.40;;;;;;4992237;28;20274;-51
2022/12/27 15:02:33;;;;;;;3.00;1.95;;;10.80;36.40;;;;;;5020775;28;20558;-51
2022/12/27 15:05:26;;;;;;;2.50;1.55;;;10.80;36.50;;;;;;5033814;28;20180;-51
2022/12/27 15:08:10;;;;;;;3.15;1.20;;;10.70;36.30;;;;;;5033618;28;20202;-51
2022/12/27 15:11:29;;;;;;;2.85;1.50;;;10.70;36.40;;;;;;5033637;28;20810;-51
2022/12/27 15:14:23;;;;;;;3.42;1.80;;;10.70;35.90;;;;;;4991702;28;20560;-51
2022/12/27 15:17:25;;;;;;;2.05;1.40;;;10.60;36.20;;;;;;4992020;28;20175;-51
2022/12/27 15:20:28;;;;;;;3.22;2.30;;;10.60;36.20;;;;;;4991825;28;20267;-50